Homeland, Florida
Current Conditions -  °F | °C
As of 11:50 AM on Thursday 30 Oct 2014 (Local Time) from KBOW Reporting Station
Broken Clouds Broken Clouds  
Wind Chill: 81°   Ceiling: 3600
Heat Index: 82°   Visibility: 10mi
Dew Point: 63°   Wind: 0mph
Humidity: 54%   Direction: NA
Pressure: 30"   Gusts: NA
Location:  27.82°N, 81.82°W
Report Text: KBOW 301550Z 00000KT 10SM BKN036 27/17 A3000
Loading
Personal Weather Stations






























Interactive Weather Map
Tropical Storm Tracking
New forecast layout! Learn more

10-Day Weather Forecast

Advertisements
Track Severe Weather on mobile